createdAt,value
2022-09-03T00:00:01.440Z,55.54
2022-09-03T00:02:37.809Z,55.14
2022-09-03T00:05:11.761Z,55.07
2022-09-03T00:07:48.181Z,55.61
2022-09-03T00:10:23.867Z,55.53
2022-09-03T00:12:55.351Z,55.71
2022-09-03T00:15:24.990Z,55.53
2022-09-03T00:17:58.795Z,55.51
2022-09-03T00:20:34.444Z,55.47
2022-09-03T00:23:06.378Z,56.36
2022-09-03T00:25:40.242Z,56.44
2022-09-03T00:28:14.198Z,56.73
2022-09-03T00:30:44.246Z,57.00
2022-09-03T00:33:19.348Z,56.70
2022-09-03T00:35:51.310Z,56.60
2022-09-03T00:38:19.236Z,56.90
2022-09-03T00:41:01.734Z,57.06
2022-09-03T00:43:46.188Z,57.30
2022-09-03T00:46:22.437Z,57.20
2022-09-03T00:49:14.798Z,57.22
2022-09-03T00:51:51.155Z,57.45
2022-09-03T00:54:25.441Z,57.25
2022-09-03T00:57:06.246Z,57.45
2022-09-03T00:59:42.433Z,57.53
2022-09-03T01:02:21.021Z,57.50
2022-09-03T01:05:01.816Z,58.05
2022-09-03T01:07:41.172Z,57.98
2022-09-03T01:10:19.863Z,58.31
2022-09-03T01:12:53.656Z,58.37
2022-09-03T01:15:28.617Z,58.44
2022-09-03T01:18:08.484Z,58.27
2022-09-03T01:20:50.872Z,58.29
2022-09-03T01:23:47.426Z,57.74
2022-09-03T01:26:32.461Z,57.30
2022-09-03T01:29:12.329Z,57.46
2022-09-03T01:31:51.622Z,57.74
2022-09-03T01:34:30.566Z,57.99
2022-09-03T01:37:09.822Z,58.05
2022-09-03T01:39:45.501Z,58.21
2022-09-03T01:42:23.730Z,57.83
2022-09-03T01:45:28.018Z,58.34
2022-09-03T01:48:16.702Z,57.62
2022-09-03T01:50:49.486Z,57.35
2022-09-03T01:53:33.629Z,56.66
2022-09-03T01:56:16.183Z,56.59
2022-09-03T01:58:50.130Z,56.57
2022-09-03T02:01:24.859Z,56.61
2022-09-03T02:04:00.115Z,57.12
2022-09-03T02:06:30.999Z,57.54
2022-09-03T02:08:59.281Z,57.07
2022-09-03T02:11:27.394Z,57.53
2022-09-03T02:13:59.867Z,56.97
2022-09-03T02:16:32.847Z,56.66
2022-09-03T02:19:04.617Z,55.99
2022-09-03T02:21:38.005Z,56.53
2022-09-03T02:24:07.203Z,57.19
2022-09-03T02:26:35.297Z,57.20
2022-09-03T02:29:04.745Z,56.89
2022-09-03T02:31:33.154Z,56.22
2022-09-03T02:34:02.769Z,55.78
2022-09-03T02:36:36.298Z,56.05
2022-09-03T02:39:05.079Z,55.83
2022-09-03T02:41:33.641Z,55.46
2022-09-03T02:44:07.035Z,54.84
2022-09-03T02:46:39.873Z,54.98
2022-09-03T02:49:09.545Z,54.40
2022-09-03T02:51:39.412Z,54.65
2022-09-03T02:54:09.137Z,54.35
2022-09-03T02:56:37.425Z,54.25
2022-09-03T02:59:06.047Z,55.18
2022-09-03T03:01:34.274Z,55.11
2022-09-03T03:04:02.350Z,55.75
2022-09-03T03:06:31.809Z,54.96
2022-09-03T03:09:00.097Z,55.58
2022-09-03T03:11:28.231Z,54.66
2022-09-03T03:13:56.265Z,54.80
2022-09-03T03:16:24.966Z,54.91
2022-09-03T03:18:52.922Z,55.17
2022-09-03T03:21:21.023Z,55.08
2022-09-03T03:23:50.384Z,55.47
2022-09-03T03:26:19.908Z,55.87
2022-09-03T03:28:48.791Z,56.38
2022-09-03T03:31:19.349Z,56.33
2022-09-03T03:33:53.111Z,56.57
2022-09-03T03:36:21.588Z,56.33
2022-09-03T03:38:50.904Z,56.08
2022-09-03T03:41:21.855Z,56.74
2022-09-03T03:43:53.717Z,57.09
2022-09-03T03:46:23.210Z,57.07
2022-09-03T03:48:51.790Z,56.97
2022-09-03T03:51:20.438Z,56.92
2022-09-03T03:53:48.373Z,56.17
2022-09-03T03:56:17.604Z,56.17
2022-09-03T03:58:45.522Z,56.57
2022-09-03T04:01:15.823Z,55.56
2022-09-03T04:03:44.842Z,56.14
2022-09-03T04:06:15.082Z,56.20
2022-09-03T04:08:44.105Z,56.17
2022-09-03T04:11:16.072Z,56.71
2022-09-03T04:13:46.826Z,56.35
2022-09-03T04:16:18.107Z,56.57
2022-09-03T04:18:48.977Z,56.45
2022-09-03T04:21:18.715Z,56.53
2022-09-03T04:23:48.090Z,56.84
2022-09-03T04:26:18.364Z,57.15
2022-09-03T04:28:47.717Z,56.38
2022-09-03T04:31:19.972Z,56.60
2022-09-03T04:33:48.052Z,56.54
2022-09-03T04:36:17.754Z,56.22
2022-09-03T04:38:47.903Z,56.63
2022-09-03T04:41:17.802Z,56.56
2022-09-03T04:43:51.531Z,56.55
2022-09-03T04:46:20.263Z,56.27
2022-09-03T04:48:51.110Z,56.83
2022-09-03T04:51:21.316Z,56.36
2022-09-03T04:53:54.535Z,55.73
2022-09-03T04:56:24.281Z,55.75
2022-09-03T04:58:58.859Z,55.16
2022-09-03T05:01:29.834Z,55.32
2022-09-03T05:03:58.217Z,55.25
2022-09-03T05:06:26.676Z,55.29
2022-09-03T05:08:55.960Z,55.82
2022-09-03T05:11:24.566Z,55.70
2022-09-03T05:13:54.522Z,55.69
2022-09-03T05:16:24.749Z,55.87
2022-09-03T05:18:54.015Z,55.79
2022-09-03T05:21:22.954Z,55.70
2022-09-03T05:23:52.085Z,54.72
2022-09-03T05:26:22.329Z,54.47
2022-09-03T05:28:53.912Z,54.41
2022-09-03T05:31:26.122Z,54.35
2022-09-03T05:33:57.687Z,54.52
2022-09-03T05:36:27.208Z,54.85
2022-09-03T05:38:55.841Z,54.93
2022-09-03T05:41:24.579Z,54.47
2022-09-03T05:43:56.083Z,54.41
2022-09-03T05:46:31.662Z,53.93
2022-09-03T05:49:00.454Z,53.88
2022-09-03T05:51:28.796Z,53.81
2022-09-03T05:53:56.774Z,53.36
2022-09-03T05:56:26.430Z,52.99
2022-09-03T05:58:56.250Z,52.70
2022-09-03T06:01:28.611Z,52.35
2022-09-03T06:03:58.168Z,52.14
2022-09-03T06:06:27.125Z,52.29
2022-09-03T06:08:55.983Z,52.20
2022-09-03T06:11:28.040Z,52.54
2022-09-03T06:13:57.062Z,52.58
2022-09-03T06:16:29.085Z,53.01
2022-09-03T06:19:00.802Z,53.03
2022-09-03T06:21:29.106Z,53.12
2022-09-03T06:23:59.580Z,52.78
2022-09-03T06:26:29.251Z,52.92
2022-09-03T06:28:58.056Z,52.80
2022-09-03T06:31:27.953Z,53.22
2022-09-03T06:33:59.667Z,53.44
2022-09-03T06:36:30.262Z,53.52
2022-09-03T06:38:58.589Z,53.30
2022-09-03T06:41:30.751Z,53.23
2022-09-03T06:44:03.302Z,53.54
2022-09-03T06:46:35.125Z,53.41
2022-09-03T06:49:03.589Z,53.18
2022-09-03T06:51:33.324Z,53.19
2022-09-03T06:54:02.816Z,53.24
2022-09-03T06:56:33.007Z,52.75
2022-09-03T06:59:06.966Z,52.92
2022-09-03T07:01:37.354Z,53.07
2022-09-03T07:04:06.812Z,53.33
2022-09-03T07:06:38.547Z,53.39
2022-09-03T07:09:06.530Z,54.11
2022-09-03T07:11:35.907Z,55.21
2022-09-03T07:14:05.342Z,55.60
2022-09-03T07:16:36.867Z,55.94
2022-09-03T07:19:05.441Z,57.02
2022-09-03T07:21:36.657Z,56.73
2022-09-03T07:24:06.126Z,57.38
2022-09-03T07:26:36.215Z,57.67
2022-09-03T07:29:04.249Z,57.03
2022-09-03T07:31:34.597Z,57.39
2022-09-03T07:34:10.039Z,56.89
2022-09-03T07:36:40.911Z,57.99
2022-09-03T07:39:11.287Z,59.01
2022-09-03T07:41:41.280Z,59.19
2022-09-03T07:44:10.019Z,58.54
2022-09-03T07:46:40.296Z,58.57
2022-09-03T07:49:10.433Z,59.02
2022-09-03T07:51:39.938Z,58.98
2022-09-03T07:54:10.820Z,59.49
2022-09-03T07:56:40.315Z,58.96
2022-09-03T07:59:09.289Z,59.70
2022-09-03T08:01:41.208Z,59.29
2022-09-03T08:04:11.666Z,59.99
2022-09-03T08:06:40.544Z,59.90
2022-09-03T08:09:11.248Z,60.23
2022-09-03T08:11:41.523Z,60.16
2022-09-03T08:14:10.853Z,59.71
2022-09-03T08:16:41.703Z,60.37
2022-09-03T08:19:13.537Z,60.27
2022-09-03T08:21:42.604Z,60.59
2022-09-03T08:24:11.762Z,61.36
2022-09-03T08:26:41.863Z,62.33
2022-09-03T08:29:10.511Z,62.97
2022-09-03T08:31:38.483Z,63.61
2022-09-03T08:34:08.516Z,64.78
2022-09-03T08:36:38.994Z,65.25
2022-09-03T08:39:09.904Z,66.08
2022-09-03T08:42:16.214Z,66.45
2022-09-03T08:44:50.502Z,66.96
2022-09-03T08:47:23.135Z,67.94
2022-09-03T08:49:55.706Z,69.38
2022-09-03T08:52:32.322Z,68.72
2022-09-03T08:55:16.095Z,69.85
2022-09-03T08:57:48.663Z,69.94
2022-09-03T09:00:17.807Z,68.73
2022-09-03T09:02:59.311Z,71.18
2022-09-03T09:05:38.412Z,68.22
2022-09-03T09:08:14.735Z,67.75
2022-09-03T09:10:47.962Z,66.98
2022-09-03T09:13:24.587Z,68.35
2022-09-03T09:16:02.488Z,65.15
2022-09-03T09:18:46.775Z,65.08
2022-09-03T09:21:21.935Z,65.70
2022-09-03T09:23:54.126Z,63.87
2022-09-03T09:26:23.356Z,63.66
2022-09-03T09:28:57.891Z,63.42
2022-09-03T09:31:26.249Z,63.89
2022-09-03T09:33:54.976Z,62.33
2022-09-03T09:36:23.736Z,62.16
2022-09-03T09:38:53.107Z,60.54
2022-09-03T09:41:27.589Z,61.15
2022-09-03T09:44:03.062Z,61.38
2022-09-03T09:46:39.527Z,58.98
2022-09-03T09:49:26.148Z,59.71
2022-09-03T09:52:02.817Z,58.63
2022-09-03T09:54:32.045Z,60.00
2022-09-03T09:57:01.939Z,58.89
2022-09-03T09:59:29.806Z,59.83
2022-09-03T10:02:10.312Z,60.28
2022-09-03T10:04:43.964Z,61.60
2022-09-03T10:07:24.363Z,61.39
2022-09-03T10:10:06.830Z,59.32
2022-09-03T10:12:40.068Z,59.46
2022-09-03T10:15:26.660Z,61.91
2022-09-03T10:18:01.311Z,60.90
2022-09-03T10:20:37.329Z,61.11
2022-09-03T10:23:12.524Z,62.14
2022-09-03T10:25:53.630Z,62.28
2022-09-03T10:28:24.338Z,62.29
2022-09-03T10:31:11.522Z,61.30
2022-09-03T10:33:44.236Z,60.76
2022-09-03T10:36:20.082Z,59.71
2022-09-03T10:38:54.969Z,55.27
2022-09-03T10:41:41.182Z,55.07
2022-09-03T10:44:35.543Z,53.63
2022-09-03T10:47:19.676Z,52.94
2022-09-03T10:49:55.227Z,52.08
2022-09-03T10:52:29.115Z,53.10
2022-09-03T10:55:10.307Z,51.04
2022-09-03T10:57:49.596Z,52.34
2022-09-03T11:00:20.143Z,54.29
2022-09-03T11:03:21.136Z,54.16
2022-09-03T11:05:59.839Z,55.02
2022-09-03T11:08:32.523Z,53.15
2022-09-03T11:11:09.032Z,51.99
2022-09-03T11:13:42.445Z,52.89
2022-09-03T11:16:16.577Z,52.55
2022-09-03T11:18:50.005Z,51.80
2022-09-03T11:21:23.027Z,52.63
2022-09-03T11:24:00.509Z,51.48
2022-09-03T11:26:29.372Z,50.75
2022-09-03T11:29:03.610Z,51.61
2022-09-03T11:31:40.608Z,51.74
2022-09-03T11:34:14.184Z,50.54
2022-09-03T11:36:51.342Z,49.96
2022-09-03T11:39:21.952Z,49.40
2022-09-03T11:42:02.127Z,47.96
2022-09-03T11:44:51.116Z,47.22
2022-09-03T11:47:24.542Z,47.43
2022-09-03T11:49:54.415Z,46.57
2022-09-03T11:52:29.555Z,45.51
2022-09-03T11:54:57.826Z,46.23
2022-09-03T11:57:29.734Z,45.57
2022-09-03T12:00:12.862Z,47.11
2022-09-03T12:02:46.492Z,46.98
2022-09-03T12:05:26.264Z,48.14
2022-09-03T12:08:43.545Z,49.58
2022-09-03T12:11:30.436Z,48.35
2022-09-03T12:14:06.464Z,46.68
2022-09-03T12:17:06.303Z,45.90
2022-09-03T12:19:40.925Z,45.74
2022-09-03T12:22:15.031Z,47.54
2022-09-03T12:24:44.984Z,47.92
2022-09-03T12:27:17.628Z,47.20
2022-09-03T12:29:58.119Z,46.31
2022-09-03T12:32:30.110Z,46.34
2022-09-03T12:34:57.962Z,46.42
2022-09-03T12:40:21.577Z,45.54
2022-09-03T12:42:50.474Z,46.07
2022-09-03T12:45:20.954Z,47.64
2022-09-03T12:47:50.737Z,45.40
2022-09-03T12:50:21.209Z,45.45
2022-09-03T12:52:51.854Z,44.76
2022-09-03T12:55:30.587Z,43.70
2022-09-03T12:58:05.518Z,44.58
2022-09-03T13:00:35.702Z,45.59
2022-09-03T13:03:09.634Z,45.39
2022-09-03T13:05:44.609Z,45.42
2022-09-03T13:08:20.067Z,45.83
2022-09-03T13:10:53.747Z,46.82
2022-09-03T13:13:25.446Z,47.35
2022-09-03T13:16:02.060Z,47.80
2022-09-03T13:18:38.070Z,47.55
2022-09-03T13:21:13.796Z,47.94
2022-09-03T13:24:23.673Z,48.70
2022-09-03T13:27:06.033Z,48.69
2022-09-03T13:29:41.051Z,47.86
2022-09-03T13:32:23.157Z,48.15
2022-09-03T13:34:58.063Z,48.52
2022-09-03T13:37:33.829Z,48.65
2022-09-03T13:40:16.013Z,49.06
2022-09-03T13:42:53.439Z,49.20
2022-09-03T13:45:32.151Z,49.75
2022-09-03T13:48:25.522Z,49.69
2022-09-03T13:51:04.317Z,48.91
2022-09-03T13:53:42.933Z,48.73
2022-09-03T13:56:21.417Z,49.03
2022-09-03T13:58:54.973Z,47.83
2022-09-03T14:01:35.794Z,46.42
2022-09-03T14:04:07.132Z,46.31
2022-09-03T14:06:43.151Z,44.74
2022-09-03T14:09:17.316Z,42.83
2022-09-03T14:11:56.311Z,38.73
2022-09-03T14:14:39.006Z,35.54
2022-09-03T14:17:16.176Z,32.11
2022-09-03T14:19:49.664Z,31.99
2022-09-03T14:22:24.089Z,37.50
2022-09-03T14:24:56.454Z,40.56
2022-09-03T14:27:26.563Z,42.39
2022-09-03T14:29:59.485Z,44.03
2022-09-03T14:32:35.698Z,44.34
2022-09-03T14:35:18.000Z,45.58
2022-09-03T14:38:25.175Z,46.33
2022-09-03T14:41:03.444Z,46.16
2022-09-03T14:43:55.223Z,47.42
2022-09-03T14:46:36.392Z,47.17
2022-09-03T14:49:40.168Z,47.22
2022-09-03T14:52:27.668Z,47.97
2022-09-03T14:55:26.823Z,49.01
2022-09-03T14:58:14.864Z,49.25
2022-09-03T15:00:50.764Z,48.55
2022-09-03T15:03:51.346Z,48.07
2022-09-03T15:06:31.308Z,47.96
2022-09-03T15:09:19.237Z,48.93
2022-09-03T15:11:53.757Z,48.12
2022-09-03T15:14:28.332Z,47.32
2022-09-03T15:17:01.785Z,48.52
2022-09-03T15:19:52.568Z,48.08
2022-09-03T15:22:35.756Z,49.56
2022-09-03T15:25:12.545Z,49.01
2022-09-03T15:28:00.336Z,44.24
2022-09-03T15:30:37.841Z,36.87
2022-09-03T15:33:17.104Z,37.13
2022-09-03T15:36:08.173Z,40.72
2022-09-03T15:38:45.091Z,41.72
2022-09-03T15:41:31.000Z,45.17
2022-09-03T15:44:02.699Z,46.36
2022-09-03T15:46:38.571Z,48.23
2022-09-03T15:49:18.291Z,48.95
2022-09-03T15:51:59.345Z,49.63
2022-09-03T15:54:43.009Z,49.94
2022-09-03T15:57:14.988Z,49.67
2022-09-03T15:59:53.451Z,49.78
2022-09-03T16:02:26.030Z,50.47
2022-09-03T16:05:07.233Z,50.71
2022-09-03T16:08:00.430Z,51.24
2022-09-03T16:10:49.382Z,51.35
2022-09-03T16:13:34.118Z,51.96
2022-09-03T16:16:06.726Z,51.96
2022-09-03T16:18:39.889Z,51.46
2022-09-03T16:21:13.470Z,51.81
2022-09-03T16:23:53.277Z,51.14
2022-09-03T16:26:28.229Z,51.21
2022-09-03T16:29:01.563Z,51.28
2022-09-03T16:31:43.203Z,51.25
2022-09-03T16:34:23.302Z,51.68
2022-09-03T16:36:56.623Z,51.41
2022-09-03T16:40:29.561Z,51.76
2022-09-03T16:43:23.498Z,52.19
2022-09-03T16:46:47.092Z,53.33
2022-09-03T16:49:27.756Z,54.36
2022-09-03T16:52:02.648Z,54.81
2022-09-03T16:54:57.309Z,54.64
2022-09-03T16:57:37.971Z,55.75
2022-09-03T17:00:12.580Z,56.23
2022-09-03T17:03:33.818Z,56.26
2022-09-03T17:06:18.703Z,56.64
2022-09-03T17:08:54.290Z,56.04
2022-09-03T17:11:49.579Z,56.54
2022-09-03T17:14:52.544Z,56.59
2022-09-03T17:17:31.020Z,56.71
2022-09-03T17:20:06.070Z,56.71
2022-09-03T17:22:44.904Z,56.78
2022-09-03T17:25:25.484Z,56.68
2022-09-03T17:28:09.363Z,56.73
2022-09-03T17:30:43.244Z,56.81
2022-09-03T17:33:50.988Z,57.47
2022-09-03T17:36:26.985Z,56.95
2022-09-03T17:39:33.428Z,57.59
2022-09-03T17:42:06.287Z,57.91
2022-09-03T17:44:56.121Z,58.83
2022-09-03T17:47:40.442Z,58.78
2022-09-03T17:50:18.088Z,58.60
2022-09-03T17:52:50.634Z,59.68
2022-09-03T17:55:27.020Z,59.51
2022-09-03T17:58:02.100Z,59.96
2022-09-03T18:00:37.495Z,59.21
2022-09-03T18:03:12.379Z,59.59
2022-09-03T18:05:47.135Z,60.08
2022-09-03T18:08:23.107Z,60.57
2022-09-03T18:11:02.030Z,60.50
2022-09-03T18:13:46.614Z,61.19
2022-09-03T18:16:20.180Z,60.94
2022-09-03T18:18:51.513Z,60.88
2022-09-03T18:21:40.367Z,61.67
2022-09-03T18:24:42.158Z,61.95
2022-09-03T18:27:31.335Z,62.07
2022-09-03T18:30:21.857Z,62.21
2022-09-03T18:33:07.248Z,62.71
2022-09-03T18:35:53.191Z,63.60
2022-09-03T18:38:44.568Z,63.87
2022-09-03T18:41:56.999Z,64.23
2022-09-03T18:45:01.735Z,63.96
2022-09-03T18:48:16.361Z,64.10
2022-09-03T18:51:11.840Z,64.61
2022-09-03T18:54:03.535Z,64.13
2022-09-03T18:56:59.629Z,64.78
2022-09-03T19:00:01.038Z,64.92
2022-09-03T19:02:55.939Z,65.23
2022-09-03T19:05:49.877Z,65.29
2022-09-03T19:08:43.737Z,65.35
2022-09-03T19:11:42.672Z,65.21
2022-09-03T19:14:40.212Z,64.97
2022-09-03T19:17:34.600Z,64.78
2022-09-03T19:20:27.517Z,64.54
2022-09-03T19:23:13.011Z,65.04
2022-09-03T19:25:58.333Z,65.17
2022-09-03T19:28:47.236Z,65.15
2022-09-03T19:32:02.654Z,65.29
2022-09-03T19:35:09.682Z,65.45
2022-09-03T19:38:01.948Z,65.85
2022-09-03T19:41:00.970Z,66.15
2022-09-03T19:43:59.349Z,66.50
2022-09-03T19:46:52.138Z,66.35
2022-09-03T19:49:49.759Z,66.67
2022-09-03T19:52:47.684Z,66.73
2022-09-03T19:56:07.134Z,67.14
2022-09-03T19:58:55.310Z,67.36
2022-09-03T20:01:54.988Z,67.61
2022-09-03T20:04:49.125Z,67.84
2022-09-03T20:07:36.179Z,67.99
2022-09-03T20:10:23.072Z,68.23
2022-09-03T20:13:00.293Z,68.71
2022-09-03T20:15:40.035Z,68.83
2022-09-03T20:18:14.826Z,68.84
2022-09-03T20:20:48.165Z,69.38
2022-09-03T20:23:21.944Z,69.64
2022-09-03T20:26:10.278Z,69.86
2022-09-03T20:29:20.578Z,70.36
2022-09-03T20:31:54.666Z,70.71
2022-09-03T20:34:39.837Z,70.91
2022-09-03T20:37:24.395Z,71.04
2022-09-03T20:40:18.175Z,71.09
2022-09-03T20:43:23.405Z,71.56
2022-09-03T20:46:07.867Z,71.98
2022-09-03T20:48:45.785Z,72.18
2022-09-03T20:51:22.733Z,72.32
2022-09-03T20:54:08.816Z,73.08
2022-09-03T20:56:53.312Z,73.03
2022-09-03T20:59:33.897Z,73.70
2022-09-03T21:02:10.109Z,73.86
2022-09-03T21:04:53.585Z,73.88
2022-09-03T21:07:34.570Z,74.00
2022-09-03T21:10:13.393Z,74.04
2022-09-03T21:12:49.655Z,74.64
2022-09-03T21:15:24.269Z,75.08
2022-09-03T21:18:02.946Z,74.93
2022-09-03T21:20:41.829Z,75.52
2022-09-03T21:23:19.783Z,75.57
2022-09-03T21:25:55.198Z,75.60
2022-09-03T21:28:28.273Z,75.78
2022-09-03T21:31:00.569Z,75.83
2022-09-03T21:33:30.855Z,75.76
2022-09-03T21:36:08.664Z,76.16
2022-09-03T21:38:39.461Z,76.22
2022-09-03T21:41:18.269Z,76.82
2022-09-03T21:43:51.600Z,76.77
2022-09-03T21:46:24.897Z,77.55
2022-09-03T21:48:57.300Z,78.06
2022-09-03T21:51:31.283Z,78.05
2022-09-03T21:54:03.943Z,78.16
2022-09-03T21:56:56.690Z,78.11
2022-09-03T21:59:47.201Z,78.43
2022-09-03T22:02:21.662Z,78.44
2022-09-03T22:04:50.792Z,78.36
2022-09-03T22:07:28.303Z,79.05
2022-09-03T22:10:02.697Z,79.16
2022-09-03T22:12:38.404Z,79.26
2022-09-03T22:15:11.381Z,79.25
2022-09-03T22:17:46.238Z,79.15
2022-09-03T22:20:15.918Z,79.19
2022-09-03T22:22:47.787Z,79.94
2022-09-03T22:25:21.182Z,80.10
2022-09-03T22:28:00.720Z,80.12
2022-09-03T22:30:32.685Z,80.12
2022-09-03T22:33:08.146Z,80.06
2022-09-03T22:35:57.592Z,80.18
2022-09-03T22:38:38.718Z,81.00
2022-09-03T22:41:20.182Z,80.18
2022-09-03T22:43:57.908Z,80.84
2022-09-03T22:46:32.166Z,80.79
2022-09-03T22:49:20.275Z,81.52
2022-09-03T22:51:59.087Z,81.70
2022-09-03T22:54:47.441Z,82.60
2022-09-03T22:57:16.910Z,82.53
2022-09-03T22:59:56.365Z,82.16
2022-09-03T23:02:27.696Z,81.77
2022-09-03T23:05:00.852Z,82.16
2022-09-03T23:07:35.009Z,82.06
2022-09-03T23:10:06.190Z,82.19
2022-09-03T23:12:40.058Z,82.75
2022-09-03T23:15:14.265Z,82.83
2022-09-03T23:17:47.066Z,82.96
2022-09-03T23:20:21.087Z,82.60
2022-09-03T23:22:59.723Z,82.94
2022-09-03T23:25:33.297Z,83.20
2022-09-03T23:28:03.999Z,83.44
2022-09-03T23:30:33.230Z,83.85
2022-09-03T23:33:01.554Z,83.79
2022-09-03T23:35:31.089Z,83.05
2022-09-03T23:38:11.430Z,83.45
2022-09-03T23:40:47.015Z,83.46
2022-09-03T23:43:59.232Z,84.00
2022-09-03T23:46:34.774Z,84.35
2022-09-03T23:49:23.870Z,83.60
2022-09-03T23:52:07.755Z,83.93
2022-09-03T23:54:40.268Z,83.57
2022-09-03T23:57:19.367Z,83.99
